METAR Data
IDs: Format: Raw Decoded Include TAF

Data at: 0107 UTC 12 May 2021

KPPO 120055Z AUTO 36009KT 10SM CLR 06/00 A3036 RMK AO2 T00610000
KPPO 120035Z AUTO 35011KT 10SM CLR 07/00 A3036 RMK AO2 T00650000
KPPO 120015Z AUTO 35012KT 10SM CLR 07/00 A3036 RMK AO2 T00700000
KPPO 112355Z AUTO 01011KT 10SM CLR 07/00 A3035 RMK AO2 T00701001 10104 20070
KPPO 112335Z AUTO 36013G17KT 10SM CLR 07/00 A3036 RMK AO2 T00721002
KPPO 112315Z AUTO 34013KT 10SM CLR 08/00 A3035 RMK AO2 T00770000
KPPO 112255Z AUTO 34014G17KT 10SM CLR 08/M01 A3035 RMK AO2 T00811006
KPPO 112235Z AUTO 01012G19KT 10SM CLR 08/00 A3034 RMK AO2 T00811005
KPPO 112215Z AUTO 36015G22KT 10SM CLR 09/M01 A3033 RMK AO2 T00851011
KPPO 112155Z AUTO 36016G21KT 10SM CLR 09/M01 A3033 RMK AO2 T00871009
KPPO 112135Z AUTO 36015G21KT 10SM CLR 09/00 A3033 RMK AO2 T00931003
KPPO 112115Z AUTO 35015G21KT 10SM CLR 09/M01 A3033 RMK AO2 T00921006
KPPO 112055Z AUTO 35013G19KT 10SM CLR 10/M01 A3033 RMK AO2 T00961011
KPPO 112035Z AUTO 35012G19KT 10SM CLR 10/00 A3034 RMK AO2 T00960003
KPPO 112015Z AUTO 35012G20KT 10SM CLR 10/00 A3035 RMK AO2 T00960004
KPPO 111955Z AUTO 34012G16KT 10SM CLR 10/01 A3035 RMK AO2 T00960012
KPPO 111935Z AUTO 34012G21KT 10SM CLR 10/01 A3035 RMK AO2 T00950010
KPPO 111915Z AUTO 36014G19KT 10SM CLR 09/01 A3035 RMK AO2 T00930006
KPPO 111900Z AUTO 36012G19KT 10SM CLR 10/01 A3035 RMK AO2 T00950005
KPPO 111835Z AUTO 35016G20KT 10SM SCT044 10/00 A3035 RMK AO2 T00970001
KPPO 111815Z AUTO 36010G15KT 10SM SCT044 10/01 A3036 RMK AO2 T00970006
KPPO 111755Z AUTO 35012G18KT 10SM SCT044 SCT060 09/00 A3036 RMK AO2 T00920004 10101 20045
KPPO 111735Z AUTO 36013G19KT 10SM SCT044 10/01 A3036 RMK AO2 T00950007
KPPO 111715Z AUTO 36014KT 10SM CLR 10/01 A3037 RMK AO2 T01000014
KPPO 111655Z AUTO 34014G19KT 10SM SCT044 10/01 A3037 RMK AO2 T00990008
KPPO 111635Z AUTO 01011G15KT 10SM SCT044 10/01 A3036 RMK AO2 T00990009
KPPO 111615Z AUTO 01015G18KT 10SM SCT044 SCT060 10/01 A3036 RMK AO2 T00980009
KPPO 111555Z AUTO 35011G14KT 10SM SCT044 09/01 A3036 RMK AO2 T00940006
KPPO 111535Z AUTO 36009G15KT 10SM CLR 10/00 A3035 RMK AO2 T00950003
KPPO 111515Z AUTO 34008KT 10SM CLR 10/01 A3035 RMK AO2 T00960007
KPPO 111455Z AUTO 02010G16KT 10SM SCT035 SCT042 09/00 A3035 RMK AO2 T00920002
KPPO 111435Z AUTO 02008KT 350V050 10SM SCT034 SCT044 08/01 A3034 RMK AO2 T00840012
KPPO 111415Z AUTO 01008KT 10SM SCT049 08/01 A3034 RMK AO2 T00790006
KPPO 111355Z AUTO 02007KT 10SM SCT049 07/01 A3034 RMK AO2 T00740008
KPPO 111335Z AUTO 01006KT 10SM CLR 07/02 A3034 RMK AO2 T00710016
KPPO 111315Z AUTO 04007KT 10SM CLR 07/02 A3033 RMK AO2 T00680019
KPPO 111255Z AUTO 04007KT 10SM CLR 07/02 A3032 RMK AO2 T00650018
KPPO 111235Z AUTO 03008KT 10SM CLR 06/02 A3032 RMK AO2 T00590017
KPPO 111215Z AUTO 05004KT 10SM CLR 05/02 A3031 RMK AO2 T00510024
KPPO 111155Z AUTO 06004KT 10SM CLR 04/02 A3031 RMK AO2 T00440023 10052 20010
KPPO 111135Z AUTO 00000KT 10SM CLR 03/02 A3031 RMK AO2 T00300020
KPPO 111115Z AUTO 00000KT 10SM CLR 02/01 A3030 RMK AO2 T00160005
KPPO 111055Z AUTO 00000KT 10SM CLR 01/00 A3029 RMK AO2 T00111001
KPPO 111035Z AUTO 05003KT 10SM CLR 03/01 A3028 RMK AO2 T00290009
KPPO 111015Z AUTO 03003KT 10SM CLR 02/01 A3028 RMK AO2 T00240007
KPPO 110955Z AUTO 03004KT 10SM CLR 02/01 A3027 RMK AO2 T00220005
KPPO 110935Z AUTO 02006KT 10SM CLR 03/01 A3026 RMK AO2 T00260006
KPPO 110915Z AUTO 01005KT 10SM CLR 03/01 A3026 RMK AO2 T00300005
KPPO 110855Z AUTO 36006KT 10SM CLR 04/01 A3024 RMK AO2 T00350007
KPPO 110835Z AUTO 36006KT 10SM SCT095 SCT120 05/01 A3024 RMK AO2 T00460012
KPPO 110815Z AUTO 36006KT 10SM SCT070 OVC095 05/01 A3024 RMK AO2 T00520011
KPPO 110755Z AUTO 01008KT 10SM BKN095 OVC120 05/01 A3023 RMK AO2 T00510007
KPPO 110735Z AUTO 01008KT 10SM SCT095 BKN120 05/01 A3023 RMK AO2 T00500010
KPPO 110715Z AUTO 01005KT 10SM SCT120 05/01 A3023 RMK AO2 T00450007
KPPO 110655Z AUTO 36005KT 10SM SCT120 05/01 A3023 RMK AO2 T00470006
KPPO 110635Z AUTO 36007KT 10SM SCT120 05/01 A3022 RMK AO2 T00500006
KPPO 110615Z AUTO 36008KT 10SM CLR 05/01 A3022 RMK AO2 T00500008
KPPO 110555Z AUTO 36007KT 10SM CLR 05/01 A3022 RMK AO2 T00470007 10075 20036 401250010
KPPO 110535Z AUTO 36006KT 10SM CLR 05/01 A3022 RMK AO2 T00460008
KPPO 110515Z AUTO 36005KT 10SM CLR 04/01 A3022 RMK AO2 T00430007
KPPO 110455Z AUTO 35003KT 10SM CLR 04/00 A3022 RMK AO2 T00390002
KPPO 110435Z AUTO 36004KT 10SM CLR 05/00 A3022 RMK AO2 T00460001
KPPO 110415Z AUTO 33003KT 10SM CLR 04/00 A3023 RMK AO2 T00360000
KPPO 110355Z AUTO 01005KT 10SM SCT100 04/00 A3022 RMK AO2 T00431001
KPPO 110335Z AUTO 02003KT 10SM SCT110 05/00 A3022 RMK AO2 T00470000
KPPO 110315Z AUTO 02004KT 10SM SCT110 05/00 A3022 RMK AO2 T00510000
KPPO 110255Z AUTO 02004KT 10SM SCT110 05/00 A3021 RMK AO2 T00520000
KPPO 110235Z AUTO 02005KT 10SM SCT110 06/00 A3021 RMK AO2 T00551005
KPPO 110215Z AUTO 01006KT 10SM BKN110 06/M01 A3021 RMK AO2 T00601007
KPPO 110155Z AUTO 01005KT 10SM SCT080 BKN100 06/00 A3020 RMK AO2 T00601004
KPPO 110135Z AUTO 04004KT 10SM BKN080 06/M01 A3019 RMK AO2 T00621011
KPPO 110115Z AUTO 02006KT 10SM SCT090 BKN110 06/M01 A3019 RMK AO2 T00621009
KPPO 110055Z AUTO 36006KT 10SM SCT090 BKN110 07/M02 A3019 RMK AO2 T00651017
KPPO 110035Z AUTO 36009KT 10SM BKN100 07/M01 A3019 RMK AO2 T00691009
KPPO 110015Z AUTO 35009KT 10SM SCT100 SCT120 07/00 A3018 RMK AO2 T00710002
KPPO 102355Z AUTO 36010KT 10SM SCT120 08/01 A3017 RMK AO2 T00750009 10125 20075
KPPO 102335Z AUTO 35010KT 10SM CLR 08/01 A3016 RMK AO2 T00750013
KPPO 102315Z AUTO 36010KT 10SM CLR 09/02 A3016 RMK AO2 T00860021
KPPO 102255Z AUTO 02012KT 10SM SCT120 09/02 A3016 RMK AO2 T00900019
KPPO 102235Z AUTO 01011KT 10SM SCT120 09/01 A3015 RMK AO2 T00920014
KPPO 102215Z AUTO 01013KT 10SM CLR 10/03 A3015 RMK AO2 T01020033
KPPO 102155Z AUTO 36013KT 10SM CLR 10/02 A3015 RMK AO2 T01020024
KPPO 102135Z AUTO 35013KT 10SM SCT039 11/03 A3014 RMK AO2 T01090031
KPPO 102115Z AUTO 01010G16KT 10SM SCT039 11/03 A3015 RMK AO2 T01120033
KPPO 102055Z AUTO 35013KT 10SM SCT085 11/04 A3015 RMK AO2 T01090037
KPPO 102035Z AUTO 34014G18KT 10SM BKN085 12/04 A3014 RMK AO2 T01150044
KPPO 102015Z AUTO 35011G14KT 10SM BKN095 12/05 A3014 RMK AO2 T01210047
KPPO 101955Z AUTO 31003KT 10SM SCT045 BKN085 BKN110 12/04 A3014 RMK AO2 T01200037
KPPO 101935Z AUTO 32006KT 10SM BKN085 BKN110 12/03 A3014 RMK AO2 T01160034
KPPO 101915Z AUTO 25005KT 10SM SCT040 SCT047 BKN075 12/04 A3014 RMK AO2 T01190035
KPPO 101855Z AUTO 35006KT 10SM SCT040 SCT047 12/04 A3014 RMK AO2 T01210042
KPPO 101835Z AUTO 00000KT 10SM SCT047 11/03 A3013 RMK AO2 T01130032
KPPO 101815Z AUTO 25003KT 10SM SCT047 10/02 A3014 RMK AO2 T01040023
KPPO 101755Z AUTO 36006KT 10SM OVC045 10/03 A3014 RMK AO2 T01000026 10107 20041
KPPO 101735Z AUTO 36006KT 10SM -RA OVC046 10/03 A3015 RMK AO2 T01010030
KPPO 101715Z AUTO 35004KT 10SM BKN050 BKN065 BKN080 10/02 A3015 RMK AO2 T01040022
KPPO 101655Z AUTO 00000KT 10SM SCT055 SCT065 SCT080 10/02 A3015 RMK AO2 T01020015
KPPO 101635Z AUTO 33004KT 10SM -DZ SCT033 SCT039 OVC055 10/01 A3015 RMK AO2 T00980009
KPPO 101615Z AUTO 31003KT 10SM SCT041 SCT050 BKN065 09/01 A3016 RMK AO2 T00930013
KPPO 101555Z AUTO 00000KT 10SM BKN085 10/02 A3014 RMK AO2 T00950019
KPPO 101535Z AUTO 00000KT 10SM BKN070 BKN085 09/01 A3014 RMK AO2 T00930014
KPPO 101515Z AUTO 00000KT 10SM OVC070 09/01 A3014 RMK AO2 T00900011
KPPO 101455Z AUTO 00000KT 10SM OVC060 09/01 A3013 RMK AO2 T00870011
KPPO 101435Z AUTO 00000KT 10SM SCT060 BKN070 OVC080 09/01 A3014 RMK AO2 T00850007
KPPO 101415Z AUTO 03005KT 10SM SCT065 SCT080 BKN090 09/01 A3013 RMK AO2 T00850008
KPPO 101355Z AUTO 02004KT 10SM SCT110 09/00 A3013 RMK AO2 T00861001
KPPO 101335Z AUTO 01004KT 10SM SCT085 SCT110 09/00 A3013 RMK AO2 T00910004
KPPO 101315Z AUTO 04006KT 10SM SCT085 09/00 A3012 RMK AO2 T00870004